Friday, November 24, 2017, 12:38 AM EST
Back to Local

KMVL, Morrisville Stowe State Airport

Location: Morrisville, VT, United States Lat: 44.533
Local Time: 12:38 AM EST ( 5:38 GMT) Lon: -72.617
Time Zone: US/Eastern Elev: 731 ft

Show me the last for .
Show Decoded

2017-11-23 23:54 METAR KMVL 240454Z AUTO 19004KT 10SM OVC029 M01/M06 A2989 RMK AO2 SLP132
                 T10111061 410111089 TSNO $ =
2017-11-23 22:54 METAR KMVL 240354Z AUTO 21004KT 10SM OVC032 M01/M07 A2990 RMK AO2 SLP136
                 T10111067 TSNO $ =
2017-11-23 21:54 METAR KMVL 240254Z AUTO 00000KT 10SM OVC090 M03/M07 A2990 RMK AO2 SLP139
                 T10281072 56013 TSNO $ =
2017-11-23 20:54 METAR KMVL 240154Z AUTO 00000KT 10SM OVC100 M03/M07 A2991 RMK AO2 SLP141
                 T10281072 TSNO $ =
2017-11-23 19:54 METAR KMVL 240054Z AUTO 20003KT 10SM FEW034 OVC100 M03/M07 A2993 RMK AO2 SLP147
                 T10331072 TSNO $ =
2017-11-23 18:54 METAR KMVL 232354Z AUTO 19003KT 10SM SCT037 OVC095 M03/M08 A2994 RMK AO2 SLP153
                 T10281083 11028 21039 56007 TSNO $ =
2017-11-23 17:54 METAR KMVL 232254Z AUTO 00000KT 10SM OVC035 M03/M08 A2995 RMK AO2 SLP154
                 T10331078 TSNO $ =
2017-11-23 16:54 METAR KMVL 232154Z AUTO 00000KT 10SM OVC037 M03/M09 A2995 RMK AO2 SLP153
                 T10331089 TSNO $ =
2017-11-23 15:54 METAR KMVL 232054Z AUTO 00000KT 10SM OVC100 M03/M09 A2996 RMK AO2 SLP160
                 T10331089 56012 TSNO $ =
2017-11-23 14:54 METAR KMVL 231954Z AUTO 01004KT 10SM OVC100 M03/M09 A2998 RMK AO2 SLP164
                 T10331094 TSNO $ =
2017-11-23 13:54 METAR KMVL 231854Z AUTO 02003KT 10SM OVC120 M03/M09 A2998 RMK AO2 SLP166
                 T10331094 TSNO $ =
2017-11-23 12:54 METAR KMVL 231754Z AUTO 01005KT 10SM OVC120 M03/M09 A3000 RMK AO2 SLP171
                 T10331094 11033 21089 58022 TSNO $ =
2017-11-23 11:54 METAR KMVL 231654Z AUTO 00000KT 10SM CLR M04/M09 A3003 RMK AO2 SLP182 T10391094
                 TSNO $ =
2017-11-23 10:54 METAR KMVL 231554Z AUTO VRB04KT 10SM CLR M04/M10 A3005 RMK AO2 SLP190 T10441100
                 TSNO $ =
2017-11-23 09:54 METAR KMVL 231454Z AUTO 01009KT 10SM CLR M05/M09 A3007 RMK AO2 SLP194 T10501094
                 58008 TSNO =
2017-11-23 08:54 METAR KMVL 231354Z AUTO 05007KT 10SM CLR M06/M10 A3008 RMK AO2 SLP199 T10611100
                 TSNO =
2017-11-23 07:54 METAR KMVL 231254Z AUTO 01005KT 10SM CLR M07/M11 A3009 RMK AO2 SLP204 T10721106
                 TSNO =
2017-11-23 06:54 METAR KMVL 231154Z AUTO 00000KT 10SM FEW025 M09/M11 A3009 RMK AO2 SLP203 60000
                 70004 T10891111 11050 21089 51012 TSNO =
2017-11-23 05:54 METAR KMVL 231054Z AUTO 00000KT 10SM CLR M08/M11 A3008 RMK AO2 SLP199 T10831111
                 TSNO =
2017-11-23 04:54 METAR KMVL 230954Z AUTO 00000KT 10SM CLR M07/M12 A3007 RMK AO2 SLP194 T10721117
                 TSNO =
2017-11-23 03:54 METAR KMVL 230854Z AUTO 35005KT 10SM CLR M08/M11 A3006 RMK AO2 SLP189 60000
                 T10781111 50005 TSNO =
2017-11-23 02:54 METAR KMVL 230754Z AUTO 36006KT 10SM BKN033 M07/M11 A3006 RMK AO2 SLP192
                 T10671111 TSNO =
2017-11-23 02:25 METAR KMVL 230725Z AUTO VRB05KT 10SM OVC032 M06/M11 A3005 RMK AO2 T10561106 TSNO
                 =
2017-11-23 01:54 METAR KMVL 230654Z AUTO VRB03KT 10SM FEW023 OVC029 M05/M09 A3005 RMK AO2
                 SNB20E43 SLP188 P0000 T10501094 TSNO =
2017-11-23 00:54 METAR KMVL 230554Z AUTO 32009G14KT 10SM OVC020 M05/M08 A3004 RMK AO2 SLP183
                 T10501083 11006 21050 50007 TSNO =

Support USWX by starting your Amazon purchase here.